Main page
METAR-TAF:

METAR-TAF

Airports :

Kushok Bakula Rimpochee Airport

Leh, India

latitude: 34-08-09N, longitude: 077-32-47E, elevation: 3256 m

METAR: missing

Time: 03:00 (21:30 UTC)

Forecast

The report was made 12 hours and 0 minutes ago, at 09:30 UTC
Forecast valid from 20 at 18 UTC to 21 at 12 UTC
Wind 5 kt from the East/Southeast
Visibility: 6000 m
Few clouds at a height of 10000 ft
Scattered clouds at a height of 15000 ft
Becoming
from 21 at 00 UTC to 21 at 02 UTC
Wind 10 kt from the West
Few clouds at a height of 6000 ft
Scattered clouds at a height of 10000 ft
Temporary
from 21 at 09 UTC to 21 at 12 UTC
Wind 10 kt from the West with gusts up to 20 kt

TAF: VILH 200930Z 2018/2112 12005KT 6000 FEW100 SCT150 BECMG 2100/2102 27010KT FEW060 SCT100 TEMPO 2109/2112 27010G20KT

Weather observations and forecasts of more than 4000 airports (METAR and TAF reports).

The available stations are represented by yellow and red dots on the map.

Hover mouse over dot to see the name of the station.

Then click to see weather observations and forecasts.

To change the map : click on the green buttons with a black cross to zoom in, on the green button with a dash to zoom out, or on the green arrows for adjacent maps.


METAR-TAF: